sensor_id;sensor_type;location;lat;lon;timestamp;P1;durP1;ratioP1;P2;durP2;ratioP2
6537;SDS011;3302;52.508;13.454;2022-08-01T00:00:12;3.33;;;3.03;;
6537;SDS011;3302;52.508;13.454;2022-08-01T00:02:38;3.37;;;3.00;;
6537;SDS011;3302;52.508;13.454;2022-08-01T00:05:05;4.40;;;3.00;;
6537;SDS011;3302;52.508;13.454;2022-08-01T00:07:33;4.60;;;3.30;;
6537;SDS011;3302;52.508;13.454;2022-08-01T00:09:59;3.20;;;2.90;;
6537;SDS011;3302;52.508;13.454;2022-08-01T00:12:25;3.37;;;3.07;;
6537;SDS011;3302;52.508;13.454;2022-08-01T00:14:51;3.47;;;3.17;;
6537;SDS011;3302;52.508;13.454;2022-08-01T00:17:16;3.47;;;3.00;;
6537;SDS011;3302;52.508;13.454;2022-08-01T00:19:42;4.47;;;3.10;;
6537;SDS011;3302;52.508;13.454;2022-08-01T00:22:08;4.67;;;3.40;;
6537;SDS011;3302;52.508;13.454;2022-08-01T00:24:33;5.70;;;3.50;;
6537;SDS011;3302;52.508;13.454;2022-08-01T00:26:59;5.90;;;3.30;;
6537;SDS011;3302;52.508;13.454;2022-08-01T00:29:25;5.20;;;3.40;;
6537;SDS011;3302;52.508;13.454;2022-08-01T00:31:51;3.50;;;3.20;;
6537;SDS011;3302;52.508;13.454;2022-08-01T00:34:17;3.37;;;3.07;;
6537;SDS011;3302;52.508;13.454;2022-08-01T00:36:43;3.57;;;3.27;;
6537;SDS011;3302;52.508;13.454;2022-08-01T00:39:08;5.90;;;3.40;;
6537;SDS011;3302;52.508;13.454;2022-08-01T00:41:34;3.57;;;3.27;;
6537;SDS011;3302;52.508;13.454;2022-08-01T00:44:04;3.83;;;3.20;;
6537;SDS011;3302;52.508;13.454;2022-08-01T00:46:30;3.53;;;3.23;;
6537;SDS011;3302;52.508;13.454;2022-08-01T00:48:57;3.60;;;3.30;;
6537;SDS011;3302;52.508;13.454;2022-08-01T00:51:23;6.90;;;3.27;;
6537;SDS011;3302;52.508;13.454;2022-08-01T00:53:50;3.67;;;3.37;;
6537;SDS011;3302;52.508;13.454;2022-08-01T00:56:16;3.83;;;3.43;;
6537;SDS011;3302;52.508;13.454;2022-08-01T00:58:42;3.60;;;3.13;;
6537;SDS011;3302;52.508;13.454;2022-08-01T01:01:09;3.93;;;3.53;;
6537;SDS011;3302;52.508;13.454;2022-08-01T01:03:35;3.57;;;3.27;;
6537;SDS011;3302;52.508;13.454;2022-08-01T01:06:23;3.57;;;3.27;;
6537;SDS011;3302;52.508;13.454;2022-08-01T01:15:04;3.60;;;3.30;;
6537;SDS011;3302;52.508;13.454;2022-08-01T01:17:46;5.20;;;3.67;;
6537;SDS011;3302;52.508;13.454;2022-08-01T01:20:18;4.03;;;3.40;;
6537;SDS011;3302;52.508;13.454;2022-08-01T01:30:43;3.83;;;3.43;;
6537;SDS011;3302;52.508;13.454;2022-08-01T01:33:11;3.73;;;3.33;;
6537;SDS011;3302;52.508;13.454;2022-08-01T01:35:41;4.03;;;3.40;;
6537;SDS011;3302;52.508;13.454;2022-08-01T01:38:14;3.87;;;3.47;;
6537;SDS011;3302;52.508;13.454;2022-08-01T01:40:45;5.20;;;4.00;;
6537;SDS011;3302;52.508;13.454;2022-08-01T01:43:12;3.77;;;3.47;;
6537;SDS011;3302;52.508;13.454;2022-08-01T01:45:41;3.60;;;3.13;;
6537;SDS011;3302;52.508;13.454;2022-08-01T01:48:07;4.47;;;3.40;;
6537;SDS011;3302;52.508;13.454;2022-08-01T01:50:35;4.53;;;3.10;;
6537;SDS011;3302;52.508;13.454;2022-08-01T01:53:02;3.50;;;3.20;;
6537;SDS011;3302;52.508;13.454;2022-08-01T01:55:30;4.47;;;3.13;;
6537;SDS011;3302;52.508;13.454;2022-08-01T01:57:57;5.33;;;3.43;;
6537;SDS011;3302;52.508;13.454;2022-08-01T02:00:25;7.00;;;3.30;;
6537;SDS011;3302;52.508;13.454;2022-08-01T02:02:52;3.20;;;2.90;;
6537;SDS011;3302;52.508;13.454;2022-08-01T02:05:20;4.33;;;3.30;;
6537;SDS011;3302;52.508;13.454;2022-08-01T02:07:46;3.60;;;3.30;;
6537;SDS011;3302;52.508;13.454;2022-08-01T02:10:12;3.50;;;3.20;;
6537;SDS011;3302;52.508;13.454;2022-08-01T02:12:41;3.57;;;3.27;;
6537;SDS011;3302;52.508;13.454;2022-08-01T02:15:11;3.70;;;3.40;;
6537;SDS011;3302;52.508;13.454;2022-08-01T02:17:42;3.73;;;3.43;;
6537;SDS011;3302;52.508;13.454;2022-08-01T02:20:12;3.87;;;3.30;;
6537;SDS011;3302;52.508;13.454;2022-08-01T02:25:45;5.17;;;3.90;;
6537;SDS011;3302;52.508;13.454;2022-08-01T02:28:15;4.03;;;3.60;;
6537;SDS011;3302;52.508;13.454;2022-08-01T02:30:53;3.70;;;3.40;;
6537;SDS011;3302;52.508;13.454;2022-08-01T02:33:24;5.40;;;3.60;;
6537;SDS011;3302;52.508;13.454;2022-08-01T02:35:58;4.03;;;3.60;;
6537;SDS011;3302;52.508;13.454;2022-08-01T02:38:27;3.87;;;3.53;;
6537;SDS011;3302;52.508;13.454;2022-08-01T02:40:55;3.77;;;3.47;;
6537;SDS011;3302;52.508;13.454;2022-08-01T02:43:25;5.43;;;3.67;;
6537;SDS011;3302;52.508;13.454;2022-08-01T02:45:54;3.67;;;3.37;;
6537;SDS011;3302;52.508;13.454;2022-08-01T02:48:25;4.03;;;3.63;;
6537;SDS011;3302;52.508;13.454;2022-08-01T02:50:52;4.00;;;3.60;;
6537;SDS011;3302;52.508;13.454;2022-08-01T02:53:23;4.30;;;3.90;;
6537;SDS011;3302;52.508;13.454;2022-08-01T02:55:51;3.73;;;3.43;;
6537;SDS011;3302;52.508;13.454;2022-08-01T02:58:19;3.83;;;3.27;;
6537;SDS011;3302;52.508;13.454;2022-08-01T03:00:49;4.03;;;3.20;;
6537;SDS011;3302;52.508;13.454;2022-08-01T03:03:15;4.13;;;3.73;;
6537;SDS011;3302;52.508;13.454;2022-08-01T03:05:43;4.67;;;3.73;;
6537;SDS011;3302;52.508;13.454;2022-08-01T03:08:10;4.30;;;3.67;;
6537;SDS011;3302;52.508;13.454;2022-08-01T03:10:38;4.43;;;3.50;;
6537;SDS011;3302;52.508;13.454;2022-08-01T03:13:06;3.80;;;3.20;;
6537;SDS011;3302;52.508;13.454;2022-08-01T03:15:34;4.20;;;3.63;;
6537;SDS011;3302;52.508;13.454;2022-08-01T03:18:03;4.17;;;3.60;;
6537;SDS011;3302;52.508;13.454;2022-08-01T03:20:32;4.10;;;3.70;;
6537;SDS011;3302;52.508;13.454;2022-08-01T03:23:00;3.83;;;3.43;;
6537;SDS011;3302;52.508;13.454;2022-08-01T03:25:29;3.97;;;3.57;;
6537;SDS011;3302;52.508;13.454;2022-08-01T03:27:58;3.90;;;3.60;;
6537;SDS011;3302;52.508;13.454;2022-08-01T03:30:27;3.50;;;3.20;;
6537;SDS011;3302;52.508;13.454;2022-08-01T03:32:54;3.70;;;3.40;;
6537;SDS011;3302;52.508;13.454;2022-08-01T03:35:21;3.97;;;3.60;;
6537;SDS011;3302;52.508;13.454;2022-08-01T03:37:52;4.03;;;3.43;;
6537;SDS011;3302;52.508;13.454;2022-08-01T03:40:35;4.00;;;3.60;;
6537;SDS011;3302;52.508;13.454;2022-08-01T03:43:09;3.87;;;3.57;;
6537;SDS011;3302;52.508;13.454;2022-08-01T03:45:41;4.10;;;3.67;;
6537;SDS011;3302;52.508;13.454;2022-08-01T03:48:12;4.67;;;3.70;;
6537;SDS011;3302;52.508;13.454;2022-08-01T03:50:42;4.00;;;3.60;;
6537;SDS011;3302;52.508;13.454;2022-08-01T03:53:11;4.27;;;3.40;;
6537;SDS011;3302;52.508;13.454;2022-08-01T03:55:38;4.77;;;4.00;;
6537;SDS011;3302;52.508;13.454;2022-08-01T03:58:06;4.03;;;3.60;;
6537;SDS011;3302;52.508;13.454;2022-08-01T04:00:34;4.13;;;3.73;;
6537;SDS011;3302;52.508;13.454;2022-08-01T04:03:04;4.50;;;3.63;;
6537;SDS011;3302;52.508;13.454;2022-08-01T04:05:34;4.33;;;3.93;;
6537;SDS011;3302;52.508;13.454;2022-08-01T04:08:00;4.47;;;3.83;;
6537;SDS011;3302;52.508;13.454;2022-08-01T04:10:28;4.23;;;3.83;;
6537;SDS011;3302;52.508;13.454;2022-08-01T04:12:54;7.43;;;4.83;;
6537;SDS011;3302;52.508;13.454;2022-08-01T04:15:20;5.17;;;4.40;;
6537;SDS011;3302;52.508;13.454;2022-08-01T04:17:46;5.23;;;4.13;;
6537;SDS011;3302;52.508;13.454;2022-08-01T04:20:12;4.80;;;4.20;;
6537;SDS011;3302;52.508;13.454;2022-08-01T04:22:38;5.37;;;4.70;;
6537;SDS011;3302;52.508;13.454;2022-08-01T04:25:07;7.27;;;4.30;;
6537;SDS011;3302;52.508;13.454;2022-08-01T04:27:38;6.40;;;4.67;;
6537;SDS011;3302;52.508;13.454;2022-08-01T04:30:08;7.60;;;5.00;;
6537;SDS011;3302;52.508;13.454;2022-08-01T04:32:35;6.40;;;5.10;;
6537;SDS011;3302;52.508;13.454;2022-08-01T04:35:06;6.80;;;5.80;;
6537;SDS011;3302;52.508;13.454;2022-08-01T04:37:34;8.17;;;6.53;;
6537;SDS011;3302;52.508;13.454;2022-08-01T04:40:03;9.00;;;7.47;;
6537;SDS011;3302;52.508;13.454;2022-08-01T04:42:31;7.87;;;6.37;;
6537;SDS011;3302;52.508;13.454;2022-08-01T04:45:00;7.77;;;6.33;;
6537;SDS011;3302;52.508;13.454;2022-08-01T04:47:26;9.07;;;7.20;;
6537;SDS011;3302;52.508;13.454;2022-08-01T04:49:51;8.63;;;7.40;;
6537;SDS011;3302;52.508;13.454;2022-08-01T04:52:18;7.93;;;7.07;;
6537;SDS011;3302;52.508;13.454;2022-08-01T04:54:44;9.57;;;7.30;;
6537;SDS011;3302;52.508;13.454;2022-08-01T04:57:11;8.67;;;7.77;;
6537;SDS011;3302;52.508;13.454;2022-08-01T04:59:38;8.53;;;7.67;;
6537;SDS011;3302;52.508;13.454;2022-08-01T05:02:08;10.87;;;8.10;;
6537;SDS011;3302;52.508;13.454;2022-08-01T05:04:36;10.53;;;7.93;;
6537;SDS011;3302;52.508;13.454;2022-08-01T05:07:02;8.03;;;7.23;;
6537;SDS011;3302;52.508;13.454;2022-08-01T05:09:29;11.23;;;7.67;;
6537;SDS011;3302;52.508;13.454;2022-08-01T05:11:56;8.77;;;7.87;;
6537;SDS011;3302;52.508;13.454;2022-08-01T05:14:24;8.53;;;7.63;;
6537;SDS011;3302;52.508;13.454;2022-08-01T05:16:51;8.77;;;7.87;;
6537;SDS011;3302;52.508;13.454;2022-08-01T05:19:17;9.20;;;8.23;;
6537;SDS011;3302;52.508;13.454;2022-08-01T05:21:42;9.63;;;8.73;;
6537;SDS011;3302;52.508;13.454;2022-08-01T05:24:08;9.53;;;8.53;;
6537;SDS011;3302;52.508;13.454;2022-08-01T05:26:34;9.63;;;8.70;;
6537;SDS011;3302;52.508;13.454;2022-08-01T05:29:00;9.03;;;8.23;;
6537;SDS011;3302;52.508;13.454;2022-08-01T05:31:25;9.10;;;8.20;;
6537;SDS011;3302;52.508;13.454;2022-08-01T05:33:51;8.73;;;7.93;;
6537;SDS011;3302;52.508;13.454;2022-08-01T05:36:17;9.23;;;8.00;;
6537;SDS011;3302;52.508;13.454;2022-08-01T05:38:43;8.90;;;8.03;;
6537;SDS011;3302;52.508;13.454;2022-08-01T05:41:09;7.80;;;7.10;;
6537;SDS011;3302;52.508;13.454;2022-08-01T05:43:35;8.70;;;7.90;;
6537;SDS011;3302;52.508;13.454;2022-08-01T05:46:01;8.20;;;7.23;;
6537;SDS011;3302;52.508;13.454;2022-08-01T05:48:27;9.47;;;6.90;;
6537;SDS011;3302;52.508;13.454;2022-08-01T05:50:53;7.47;;;6.77;;
6537;SDS011;3302;52.508;13.454;2022-08-01T05:53:19;7.73;;;6.93;;
6537;SDS011;3302;52.508;13.454;2022-08-01T05:55:45;9.40;;;6.70;;
6537;SDS011;3302;52.508;13.454;2022-08-01T05:58:11;7.20;;;6.40;;
6537;SDS011;3302;52.508;13.454;2022-08-01T06:00:36;9.13;;;6.07;;
6537;SDS011;3302;52.508;13.454;2022-08-01T06:03:02;6.93;;;6.23;;
6537;SDS011;3302;52.508;13.454;2022-08-01T06:05:28;6.63;;;5.90;;
6537;SDS011;3302;52.508;13.454;2022-08-01T06:07:54;6.07;;;5.57;;
6537;SDS011;3302;52.508;13.454;2022-08-01T06:10:19;6.37;;;5.77;;
6537;SDS011;3302;52.508;13.454;2022-08-01T06:12:45;5.80;;;5.30;;
6537;SDS011;3302;52.508;13.454;2022-08-01T06:15:11;6.63;;;5.13;;
6537;SDS011;3302;52.508;13.454;2022-08-01T06:17:37;5.13;;;4.63;;
6537;SDS011;3302;52.508;13.454;2022-08-01T06:20:04;5.93;;;5.33;;
6537;SDS011;3302;52.508;13.454;2022-08-01T06:22:31;5.80;;;4.80;;
6537;SDS011;3302;52.508;13.454;2022-08-01T06:24:57;6.33;;;4.77;;
6537;SDS011;3302;52.508;13.454;2022-08-01T06:27:23;7.80;;;5.40;;
6537;SDS011;3302;52.508;13.454;2022-08-01T06:29:51;6.30;;;5.70;;
6537;SDS011;3302;52.508;13.454;2022-08-01T06:32:20;5.97;;;4.97;;
6537;SDS011;3302;52.508;13.454;2022-08-01T06:34:47;6.13;;;4.40;;
6537;SDS011;3302;52.508;13.454;2022-08-01T06:37:13;5.27;;;4.77;;
6537;SDS011;3302;52.508;13.454;2022-08-01T06:39:39;5.90;;;4.80;;
6537;SDS011;3302;52.508;13.454;2022-08-01T06:42:05;4.73;;;4.33;;
6537;SDS011;3302;52.508;13.454;2022-08-01T06:44:31;5.40;;;4.50;;
6537;SDS011;3302;52.508;13.454;2022-08-01T06:46:56;4.67;;;3.97;;
6537;SDS011;3302;52.508;13.454;2022-08-01T06:49:25;3.97;;;3.43;;
6537;SDS011;3302;52.508;13.454;2022-08-01T06:51:51;3.97;;;3.50;;
6537;SDS011;3302;52.508;13.454;2022-08-01T06:54:16;3.10;;;2.80;;
6537;SDS011;3302;52.508;13.454;2022-08-01T06:56:42;3.17;;;2.60;;
6537;SDS011;3302;52.508;13.454;2022-08-01T06:59:08;3.07;;;2.77;;
6537;SDS011;3302;52.508;13.454;2022-08-01T07:01:34;3.20;;;2.70;;
6537;SDS011;3302;52.508;13.454;2022-08-01T07:04:00;3.33;;;3.03;;
6537;SDS011;3302;52.508;13.454;2022-08-01T07:06:30;2.73;;;2.53;;
6537;SDS011;3302;52.508;13.454;2022-08-01T07:08:56;5.37;;;2.90;;
6537;SDS011;3302;52.508;13.454;2022-08-01T07:11:23;2.90;;;2.70;;
6537;SDS011;3302;52.508;13.454;2022-08-01T07:13:49;4.63;;;3.10;;
6537;SDS011;3302;52.508;13.454;2022-08-01T07:16:15;2.87;;;2.67;;
6537;SDS011;3302;52.508;13.454;2022-08-01T07:18:41;3.30;;;3.00;;
6537;SDS011;3302;52.508;13.454;2022-08-01T07:21:07;2.97;;;2.67;;
6537;SDS011;3302;52.508;13.454;2022-08-01T07:23:33;3.10;;;2.80;;
6537;SDS011;3302;52.508;13.454;2022-08-01T07:25:59;3.33;;;3.03;;
6537;SDS011;3302;52.508;13.454;2022-08-01T07:28:27;7.17;;;3.60;;
6537;SDS011;3302;52.508;13.454;2022-08-01T07:30:53;3.10;;;2.90;;
6537;SDS011;3302;52.508;13.454;2022-08-01T07:33:19;3.10;;;2.70;;
6537;SDS011;3302;52.508;13.454;2022-08-01T07:35:45;4.90;;;2.80;;
6537;SDS011;3302;52.508;13.454;2022-08-01T07:38:11;3.00;;;2.80;;
6537;SDS011;3302;52.508;13.454;2022-08-01T07:40:37;2.80;;;2.60;;
6537;SDS011;3302;52.508;13.454;2022-08-01T07:43:03;2.83;;;2.63;;
6537;SDS011;3302;52.508;13.454;2022-08-01T07:45:29;3.20;;;2.90;;
6537;SDS011;3302;52.508;13.454;2022-08-01T07:47:55;4.57;;;3.27;;
6537;SDS011;3302;52.508;13.454;2022-08-01T07:50:21;3.43;;;3.13;;
6537;SDS011;3302;52.508;13.454;2022-08-01T07:52:47;3.70;;;3.30;;
6537;SDS011;3302;52.508;13.454;2022-08-01T07:55:12;3.40;;;3.10;;
6537;SDS011;3302;52.508;13.454;2022-08-01T07:57:38;2.93;;;2.73;;
6537;SDS011;3302;52.508;13.454;2022-08-01T08:00:05;4.07;;;3.33;;
6537;SDS011;3302;52.508;13.454;2022-08-01T08:02:32;2.90;;;2.70;;
6537;SDS011;3302;52.508;13.454;2022-08-01T08:04:58;3.10;;;2.80;;
6537;SDS011;3302;52.508;13.454;2022-08-01T08:07:23;4.20;;;2.90;;
6537;SDS011;3302;52.508;13.454;2022-08-01T08:09:49;3.27;;;2.97;;
6537;SDS011;3302;52.508;13.454;2022-08-01T08:12:15;3.70;;;3.40;;
6537;SDS011;3302;52.508;13.454;2022-08-01T08:14:40;3.87;;;3.57;;
6537;SDS011;3302;52.508;13.454;2022-08-01T08:17:06;4.00;;;3.60;;
6537;SDS011;3302;52.508;13.454;2022-08-01T08:19:32;4.30;;;3.40;;
6537;SDS011;3302;52.508;13.454;2022-08-01T08:22:01;5.33;;;4.37;;
6537;SDS011;3302;52.508;13.454;2022-08-01T08:24:27;4.30;;;4.00;;
6537;SDS011;3302;52.508;13.454;2022-08-01T08:26:56;4.63;;;4.23;;
6537;SDS011;3302;52.508;13.454;2022-08-01T08:29:23;4.33;;;3.93;;
6537;SDS011;3302;52.508;13.454;2022-08-01T08:31:51;4.30;;;4.00;;
6537;SDS011;3302;52.508;13.454;2022-08-01T08:34:17;3.93;;;3.53;;
6537;SDS011;3302;52.508;13.454;2022-08-01T08:36:43;4.27;;;3.87;;
6537;SDS011;3302;52.508;13.454;2022-08-01T08:39:09;3.50;;;3.20;;
6537;SDS011;3302;52.508;13.454;2022-08-01T08:41:35;3.23;;;2.93;;
6537;SDS011;3302;52.508;13.454;2022-08-01T08:44:05;5.57;;;3.37;;
6537;SDS011;3302;52.508;13.454;2022-08-01T08:46:32;3.70;;;3.40;;
6537;SDS011;3302;52.508;13.454;2022-08-01T08:49:00;4.87;;;3.30;;
6537;SDS011;3302;52.508;13.454;2022-08-01T08:51:27;3.07;;;2.77;;
6537;SDS011;3302;52.508;13.454;2022-08-01T08:53:56;4.07;;;2.97;;
6537;SDS011;3302;52.508;13.454;2022-08-01T08:56:25;4.17;;;2.90;;
6537;SDS011;3302;52.508;13.454;2022-08-01T08:58:55;3.60;;;3.03;;
6537;SDS011;3302;52.508;13.454;2022-08-01T09:01:22;2.63;;;2.43;;
6537;SDS011;3302;52.508;13.454;2022-08-01T09:03:48;3.23;;;2.90;;
6537;SDS011;3302;52.508;13.454;2022-08-01T09:06:13;3.13;;;2.30;;
6537;SDS011;3302;52.508;13.454;2022-08-01T09:08:39;5.50;;;2.10;;
6537;SDS011;3302;52.508;13.454;2022-08-01T09:11:05;2.47;;;2.20;;
6537;SDS011;3302;52.508;13.454;2022-08-01T09:13:31;2.00;;;1.80;;
6537;SDS011;3302;52.508;13.454;2022-08-01T09:15:57;2.03;;;1.67;;
6537;SDS011;3302;52.508;13.454;2022-08-01T09:21:07;1.80;;;1.70;;
6537;SDS011;3302;52.508;13.454;2022-08-01T09:23:35;2.50;;;1.47;;
6537;SDS011;3302;52.508;13.454;2022-08-01T09:26:08;1.57;;;1.40;;
6537;SDS011;3302;52.508;13.454;2022-08-01T09:28:34;2.00;;;1.60;;
6537;SDS011;3302;52.508;13.454;2022-08-01T09:31:07;3.50;;;2.10;;
6537;SDS011;3302;52.508;13.454;2022-08-01T09:33:51;2.30;;;1.47;;
6537;SDS011;3302;52.508;13.454;2022-08-01T09:36:25;2.03;;;1.60;;
6537;SDS011;3302;52.508;13.454;2022-08-01T09:39:11;2.03;;;1.50;;
6537;SDS011;3302;52.508;13.454;2022-08-01T09:41:38;3.27;;;1.87;;
6537;SDS011;3302;52.508;13.454;2022-08-01T09:44:04;2.53;;;1.90;;
6537;SDS011;3302;52.508;13.454;2022-08-01T09:46:30;2.03;;;1.57;;
6537;SDS011;3302;52.508;13.454;2022-08-01T09:51:33;2.10;;;1.80;;
6537;SDS011;3302;52.508;13.454;2022-08-01T09:54:01;2.73;;;1.87;;
6537;SDS011;3302;52.508;13.454;2022-08-01T09:57:06;2.10;;;1.90;;
6537;SDS011;3302;52.508;13.454;2022-08-01T09:59:39;3.07;;;2.10;;
6537;SDS011;3302;52.508;13.454;2022-08-01T10:02:29;2.17;;;1.97;;
6537;SDS011;3302;52.508;13.454;2022-08-01T10:04:57;2.77;;;2.30;;
6537;SDS011;3302;52.508;13.454;2022-08-01T10:07:24;2.07;;;1.87;;
6537;SDS011;3302;52.508;13.454;2022-08-01T10:09:49;3.53;;;2.00;;
6537;SDS011;3302;52.508;13.454;2022-08-01T10:12:16;3.10;;;2.00;;
6537;SDS011;3302;52.508;13.454;2022-08-01T10:14:44;2.37;;;2.17;;
6537;SDS011;3302;52.508;13.454;2022-08-01T10:17:16;2.33;;;2.10;;
6537;SDS011;3302;52.508;13.454;2022-08-01T10:19:43;2.20;;;2.00;;
6537;SDS011;3302;52.508;13.454;2022-08-01T10:22:13;3.90;;;2.23;;
6537;SDS011;3302;52.508;13.454;2022-08-01T10:24:42;3.63;;;1.97;;
6537;SDS011;3302;52.508;13.454;2022-08-01T10:27:11;2.17;;;1.97;;
6537;SDS011;3302;52.508;13.454;2022-08-01T10:29:54;3.10;;;1.90;;
6537;SDS011;3302;52.508;13.454;2022-08-01T10:32:22;5.10;;;2.47;;
6537;SDS011;3302;52.508;13.454;2022-08-01T10:34:49;5.07;;;2.10;;
6537;SDS011;3302;52.508;13.454;2022-08-01T10:37:15;4.97;;;2.00;;
6537;SDS011;3302;52.508;13.454;2022-08-01T10:39:42;2.30;;;2.10;;
6537;SDS011;3302;52.508;13.454;2022-08-01T10:42:09;2.40;;;2.20;;
6537;SDS011;3302;52.508;13.454;2022-08-01T10:44:36;1.70;;;1.60;;
6537;SDS011;3302;52.508;13.454;2022-08-01T10:47:06;2.10;;;1.90;;
6537;SDS011;3302;52.508;13.454;2022-08-01T10:49:36;2.10;;;1.90;;
6537;SDS011;3302;52.508;13.454;2022-08-01T10:52:14;2.27;;;1.80;;
6537;SDS011;3302;52.508;13.454;2022-08-01T10:54:40;2.40;;;2.00;;
6537;SDS011;3302;52.508;13.454;2022-08-01T10:57:06;2.43;;;1.90;;
6537;SDS011;3302;52.508;13.454;2022-08-01T10:59:32;2.63;;;1.80;;
6537;SDS011;3302;52.508;13.454;2022-08-01T11:02:01;1.63;;;1.53;;
6537;SDS011;3302;52.508;13.454;2022-08-01T11:04:33;1.83;;;1.70;;
6537;SDS011;3302;52.508;13.454;2022-08-01T11:09:44;1.80;;;1.50;;
6537;SDS011;3302;52.508;13.454;2022-08-01T11:12:14;3.83;;;2.30;;
6537;SDS011;3302;52.508;13.454;2022-08-01T11:17:35;1.70;;;1.60;;
6537;SDS011;3302;52.508;13.454;2022-08-01T11:20:03;1.70;;;1.60;;
6537;SDS011;3302;52.508;13.454;2022-08-01T11:30:40;1.80;;;1.50;;
6537;SDS011;3302;52.508;13.454;2022-08-01T11:33:06;1.70;;;1.50;;
6537;SDS011;3302;52.508;13.454;2022-08-01T11:35:32;2.60;;;1.63;;
6537;SDS011;3302;52.508;13.454;2022-08-01T11:52:06;2.53;;;1.93;;
6537;SDS011;3302;52.508;13.454;2022-08-01T11:54:35;2.93;;;1.47;;
6537;SDS011;3302;52.508;13.454;2022-08-01T11:57:05;3.00;;;1.77;;
6537;SDS011;3302;52.508;13.454;2022-08-01T11:59:36;1.93;;;1.37;;
6537;SDS011;3302;52.508;13.454;2022-08-01T12:07:19;3.00;;;1.90;;
6537;SDS011;3302;52.508;13.454;2022-08-01T12:09:46;2.30;;;1.77;;
6537;SDS011;3302;52.508;13.454;2022-08-01T12:12:15;3.47;;;1.60;;
6537;SDS011;3302;52.508;13.454;2022-08-01T12:14:42;2.47;;;1.43;;
6537;SDS011;3302;52.508;13.454;2022-08-01T12:17:10;2.60;;;1.73;;
6537;SDS011;3302;52.508;13.454;2022-08-01T12:19:35;1.83;;;1.50;;
6537;SDS011;3302;52.508;13.454;2022-08-01T12:22:20;1.50;;;1.40;;
6537;SDS011;3302;52.508;13.454;2022-08-01T12:24:47;2.17;;;1.47;;
6537;SDS011;3302;52.508;13.454;2022-08-01T12:27:23;3.70;;;1.60;;
6537;SDS011;3302;52.508;13.454;2022-08-01T12:29:54;2.27;;;1.50;;
6537;SDS011;3302;52.508;13.454;2022-08-01T12:32:30;3.77;;;1.70;;
6537;SDS011;3302;52.508;13.454;2022-08-01T12:35:01;3.77;;;1.60;;
6537;SDS011;3302;52.508;13.454;2022-08-01T12:42:48;2.47;;;2.00;;
6537;SDS011;3302;52.508;13.454;2022-08-01T12:45:17;2.10;;;1.60;;
6537;SDS011;3302;52.508;13.454;2022-08-01T12:47:53;2.20;;;1.60;;
6537;SDS011;3302;52.508;13.454;2022-08-01T12:50:21;3.57;;;1.80;;
6537;SDS011;3302;52.508;13.454;2022-08-01T12:52:48;4.20;;;2.20;;
6537;SDS011;3302;52.508;13.454;2022-08-01T12:55:16;1.53;;;1.43;;
6537;SDS011;3302;52.508;13.454;2022-08-01T12:57:44;1.63;;;1.53;;
6537;SDS011;3302;52.508;13.454;2022-08-01T13:00:22;1.93;;;1.83;;
6537;SDS011;3302;52.508;13.454;2022-08-01T13:02:51;1.80;;;1.50;;
6537;SDS011;3302;52.508;13.454;2022-08-01T13:08:11;1.73;;;1.47;;
6537;SDS011;3302;52.508;13.454;2022-08-01T13:10:38;2.00;;;1.37;;
6537;SDS011;3302;52.508;13.454;2022-08-01T13:13:04;2.23;;;1.53;;
6537;SDS011;3302;52.508;13.454;2022-08-01T13:15:31;2.90;;;1.60;;
6537;SDS011;3302;52.508;13.454;2022-08-01T13:18:00;2.50;;;1.50;;
6537;SDS011;3302;52.508;13.454;2022-08-01T13:20:46;3.33;;;1.73;;
6537;SDS011;3302;52.508;13.454;2022-08-01T13:23:16;2.17;;;1.97;;
6537;SDS011;3302;52.508;13.454;2022-08-01T13:25:50;5.87;;;1.60;;
6537;SDS011;3302;52.508;13.454;2022-08-01T13:28:24;1.53;;;1.43;;
6537;SDS011;3302;52.508;13.454;2022-08-01T13:30:51;2.10;;;1.90;;
6537;SDS011;3302;52.508;13.454;2022-08-01T13:33:22;1.77;;;1.67;;
6537;SDS011;3302;52.508;13.454;2022-08-01T13:35:53;4.00;;;1.60;;
6537;SDS011;3302;52.508;13.454;2022-08-01T13:38:20;2.37;;;1.70;;
6537;SDS011;3302;52.508;13.454;2022-08-01T13:41:07;1.50;;;1.40;;
6537;SDS011;3302;52.508;13.454;2022-08-01T13:43:33;1.73;;;1.63;;
6537;SDS011;3302;52.508;13.454;2022-08-01T13:46:00;1.90;;;1.70;;
6537;SDS011;3302;52.508;13.454;2022-08-01T13:48:27;2.30;;;2.10;;
6537;SDS011;3302;52.508;13.454;2022-08-01T13:50:53;3.60;;;2.03;;
6537;SDS011;3302;52.508;13.454;2022-08-01T13:53:19;2.63;;;1.70;;
6537;SDS011;3302;52.508;13.454;2022-08-01T13:55:45;5.33;;;1.50;;
6537;SDS011;3302;52.508;13.454;2022-08-01T13:58:10;2.07;;;1.60;;
6537;SDS011;3302;52.508;13.454;2022-08-01T14:00:36;1.70;;;1.60;;
6537;SDS011;3302;52.508;13.454;2022-08-01T14:03:02;1.93;;;1.60;;
6537;SDS011;3302;52.508;13.454;2022-08-01T14:05:28;1.77;;;1.60;;
6537;SDS011;3302;52.508;13.454;2022-08-01T14:07:55;2.03;;;1.40;;
6537;SDS011;3302;52.508;13.454;2022-08-01T14:10:21;1.70;;;1.57;;
6537;SDS011;3302;52.508;13.454;2022-08-01T14:12:47;2.10;;;1.70;;
6537;SDS011;3302;52.508;13.454;2022-08-01T14:15:13;1.83;;;1.70;;
6537;SDS011;3302;52.508;13.454;2022-08-01T14:17:39;2.57;;;1.90;;
6537;SDS011;3302;52.508;13.454;2022-08-01T14:20:04;2.07;;;1.60;;
6537;SDS011;3302;52.508;13.454;2022-08-01T14:22:30;2.13;;;1.57;;
6537;SDS011;3302;52.508;13.454;2022-08-01T14:24:56;1.60;;;1.50;;
6537;SDS011;3302;52.508;13.454;2022-08-01T14:27:22;3.07;;;1.90;;
6537;SDS011;3302;52.508;13.454;2022-08-01T14:29:48;2.70;;;1.87;;
6537;SDS011;3302;52.508;13.454;2022-08-01T14:32:14;3.43;;;1.80;;
6537;SDS011;3302;52.508;13.454;2022-08-01T14:34:39;2.13;;;1.93;;
6537;SDS011;3302;52.508;13.454;2022-08-01T14:37:05;1.80;;;1.57;;
6537;SDS011;3302;52.508;13.454;2022-08-01T14:39:31;1.50;;;1.40;;
6537;SDS011;3302;52.508;13.454;2022-08-01T14:41:56;2.00;;;1.80;;
6537;SDS011;3302;52.508;13.454;2022-08-01T14:44:22;3.50;;;1.60;;
6537;SDS011;3302;52.508;13.454;2022-08-01T14:46:48;2.00;;;1.40;;
6537;SDS011;3302;52.508;13.454;2022-08-01T14:49:14;2.83;;;1.90;;
6537;SDS011;3302;52.508;13.454;2022-08-01T14:51:40;2.07;;;1.50;;
6537;SDS011;3302;52.508;13.454;2022-08-01T14:54:06;3.30;;;1.60;;
6537;SDS011;3302;52.508;13.454;2022-08-01T14:56:32;1.70;;;1.60;;
6537;SDS011;3302;52.508;13.454;2022-08-01T14:58:57;1.87;;;1.60;;
6537;SDS011;3302;52.508;13.454;2022-08-01T15:01:23;2.00;;;1.63;;
6537;SDS011;3302;52.508;13.454;2022-08-01T15:03:49;2.33;;;1.70;;
6537;SDS011;3302;52.508;13.454;2022-08-01T15:06:16;1.70;;;1.60;;
6537;SDS011;3302;52.508;13.454;2022-08-01T15:08:42;2.10;;;1.90;;
6537;SDS011;3302;52.508;13.454;2022-08-01T15:11:08;2.40;;;1.83;;
6537;SDS011;3302;52.508;13.454;2022-08-01T15:13:34;1.93;;;1.70;;
6537;SDS011;3302;52.508;13.454;2022-08-01T15:16:00;1.60;;;1.50;;
6537;SDS011;3302;52.508;13.454;2022-08-01T15:18:26;2.23;;;1.70;;
6537;SDS011;3302;52.508;13.454;2022-08-01T15:20:53;1.70;;;1.60;;
6537;SDS011;3302;52.508;13.454;2022-08-01T15:23:18;3.03;;;1.67;;
6537;SDS011;3302;52.508;13.454;2022-08-01T15:25:44;2.07;;;1.60;;
6537;SDS011;3302;52.508;13.454;2022-08-01T15:28:11;1.70;;;1.50;;
6537;SDS011;3302;52.508;13.454;2022-08-01T15:30:37;3.53;;;1.90;;
6537;SDS011;3302;52.508;13.454;2022-08-01T15:33:03;4.03;;;1.67;;
6537;SDS011;3302;52.508;13.454;2022-08-01T15:35:29;2.20;;;1.20;;
6537;SDS011;3302;52.508;13.454;2022-08-01T15:37:55;2.07;;;1.50;;
6537;SDS011;3302;52.508;13.454;2022-08-01T15:40:21;2.13;;;1.60;;
6537;SDS011;3302;52.508;13.454;2022-08-01T15:42:47;2.07;;;1.40;;
6537;SDS011;3302;52.508;13.454;2022-08-01T15:45:13;2.63;;;1.50;;
6537;SDS011;3302;52.508;13.454;2022-08-01T15:47:43;2.13;;;1.53;;
6537;SDS011;3302;52.508;13.454;2022-08-01T15:50:09;2.80;;;1.40;;
6537;SDS011;3302;52.508;13.454;2022-08-01T15:52:35;2.20;;;1.50;;
6537;SDS011;3302;52.508;13.454;2022-08-01T15:55:01;2.73;;;1.50;;
6537;SDS011;3302;52.508;13.454;2022-08-01T15:57:27;1.37;;;1.27;;
6537;SDS011;3302;52.508;13.454;2022-08-01T15:59:53;1.67;;;1.50;;
6537;SDS011;3302;52.508;13.454;2022-08-01T16:02:19;1.60;;;1.30;;
6537;SDS011;3302;52.508;13.454;2022-08-01T16:04:45;4.37;;;1.40;;
6537;SDS011;3302;52.508;13.454;2022-08-01T16:07:10;1.43;;;1.33;;